Max Loyalty — 9HA4065 — position and weather

sailwx.info

Track history (hours):
 
Tides and Currents Weather Stations Pressure Air Temp Water Temp Dewpoint Dewpoint Depression Visibility Wind Speed Wind Dir Waves Ship Positions

Max Loyalty

Last reported at 2018-Jun-25 17:30 UTC. Time now 2018-Jun-25 17:51 UTC.
Position N 29°01' W 014°60'.

Length 134 m; draft 8.5 m.

Type: Ship. MMSI: 249037000.

Date/timePositionNaut miles runAvg speedWind from/ knotsBaromVisibWave heightAir tempDewpointWater temp
2018-Jun-25 17:30N 29°01' W 014°60'714.3
2018-Jun-25 17:00N 28°58' W 015°07'714.5
2018-Jun-25 16:30N 28°54' W 015°15'714.4
2018-Jun-25 16:00N 28°51' W 015°21'714.4
2018-Jun-25 15:30N 28°48' W 015°29'714.3
2018-Jun-25 15:00N 28°45' W 015°36'714.2
2018-Jun-25 14:30N 28°41' W 015°43'714.6
2018-Jun-25 14:00N 28°38' W 015°51'714.5
2018-Jun-25 13:30N 28°35' W 015°58'714.4
2018-Jun-25 13:00N 28°31' W 016°05'714.2
2018-Jun-25 12:30N 28°28' W 016°13'1 2.1
2018-Jun-25 11:58N 28°29' W 016°13'0 0.0
2018-Jun-25 11:22N 28°29' W 016°13'0 0.0
2018-Jun-25 10:58N 28°29' W 016°13'0 0.0
2018-Jun-25 10:28N 28°29' W 016°13'0 0.0
2018-Jun-25 10:01N 28°29' W 016°13'0 0.0
2018-Jun-25 09:30N 28°29' W 016°13'0 0.0
2018-Jun-25 09:00N 28°29' W 016°13'0 0.0
2018-Jun-25 08:30N 28°29' W 016°13'0 0.0
2018-Jun-25 08:00N 28°29' W 016°13'0 0.0
2018-Jun-25 07:29N 28°29' W 016°13'0 0.0
2018-Jun-25 07:00N 28°29' W 016°13'1 2.4
2018-Jun-25 06:30N 28°28' W 016°13'510.6
2018-Jun-25 06:00N 28°26' W 016°08'714.2
2018-Jun-25 05:31N 28°24' W 015°60'714.5
2018-Jun-25 05:00N 28°22' W 015°52'714.5
2018-Jun-25 04:30N 28°20' W 015°44'714.4
2018-Jun-25 04:00N 28°18' W 015°36'714.4
2018-Jun-25 03:30N 28°16' W 015°28'713.7
2018-Jun-25 03:00N 28°13' W 015°22'611.7
2018-Jun-25 02:30N 28°07' W 015°24'2 3.1
2018-Jun-25 01:59N 28°09' W 015°25'0 0.0
2018-Jun-25 01:29N 28°09' W 015°25'0 0.0
2018-Jun-25 00:59N 28°09' W 015°25'0 0.0
2018-Jun-25 00:25N 28°09' W 015°25'0 0.0
2018-Jun-24 23:49N 28°09' W 015°25'0 0.0
2018-Jun-24 23:28N 28°09' W 015°25'0 0.0
2018-Jun-24 22:58N 28°09' W 015°25'0 0.0
2018-Jun-24 22:28N 28°09' W 015°25'0 0.0
2018-Jun-24 21:54N 28°09' W 015°25'0 0.0
2018-Jun-24 21:30N 28°09' W 015°25'0 0.0
2018-Jun-24 21:00N 28°09' W 015°25'0 0.0
2018-Jun-24 20:27N 28°09' W 015°25'0 0.0
2018-Jun-24 19:53N 28°09' W 015°25'0 0.0
2018-Jun-24 19:20N 28°09' W 015°25'0 0.0
2018-Jun-24 18:59N 28°09' W 015°25'0 0.0
2018-Jun-24 18:29N 28°09' W 015°25'0 0.0
2018-Jun-24 17:56N 28°09' W 015°25'0 0.0
2018-Jun-24 17:22N 28°09' W 015°25'0 0.0
2018-Jun-24 16:49N 28°09' W 015°25'0 0.0
2018-Jun-24 16:28N 28°09' W 015°25'0 0.0
2018-Jun-24 15:58N 28°09' W 015°25'0 0.0
2018-Jun-24 15:30N 28°09' W 015°25'1 2.2
2018-Jun-24 15:00N 28°07' W 015°24'4 8.7
2018-Jun-24 14:31N 28°09' W 015°20'815.3
2018-Jun-24 14:01N 28°15' W 015°14'815.1
2018-Jun-24 13:31N 28°20' W 015°08'714.7
2018-Jun-24 13:00N 28°26' W 015°02'714.6
2018-Jun-24 12:30N 28°31' W 014°57'714.6
2018-Jun-24 12:00N 28°36' W 014°51'814.6
2018-Jun-24 11:27N 28°42' W 014°45'614.7
2018-Jun-24 11:00N 28°47' W 014°39'1014.6
2018-Jun-24 10:20N 28°54' W 014°31'514.4
2018-Jun-24 09:59N 28°57' W 014°27'715.3
2018-Jun-24 09:30N 29°02' W 014°21'815.2
2018-Jun-24 08:58N 29°08' W 014°15'1215.4
2018-Jun-24 08:13N 29°16' W 014°05'315.5
2018-Jun-24 08:00N 29°19' W 014°03'  
2018-Jun-19 07:49N 37°28' W 001°04'516.1
2018-Jun-19 07:30N 37°32' W 001°00'3 0.4
2018-Jun-18 23:21N 37°36' W 000°58'0 0.0
2018-Jun-18 16:30N 37°36' W 000°59'3 4.9
2018-Jun-18 15:59N 37°33' W 000°60'1 1.6
2018-Jun-18 15:25N 37°33' W 001°01'0 0.5
2018-Jun-18 15:00N 37°33' W 001°01'21812.8
2018-Jun-17 22:04N 36°04' W 005°09'114.7
2018-Jun-17 21:59N 36°04' W 005°10'714.7
2018-Jun-17 21:30N 36°03' W 005°19'612.2
2018-Jun-17 21:00N 36°07' W 005°25'1 2.0
2018-Jun-17 20:28N 36°08' W 005°25'0 0.0
2018-Jun-17 19:55N 36°08' W 005°25'0 0.0
2018-Jun-17 19:25N 36°08' W 005°25'0 0.0
2018-Jun-17 19:00N 36°08' W 005°25'0 0.0
2018-Jun-17 17:42N 36°08' W 005°25'0 0.0
2018-Jun-17 17:18N 36°08' W 005°25'0 0.0
2018-Jun-17 16:59N 36°08' W 005°25'0 0.0
2018-Jun-17 16:29N 36°08' W 005°25'0 0.0
2018-Jun-17 15:11N 36°08' W 005°25'0 0.0
2018-Jun-17 14:59N 36°08' W 005°25'0 0.0
2018-Jun-17 14:28N 36°08' W 005°25'0 0.0
2018-Jun-17 13:58N 36°08' W 005°25'0 0.0
2018-Jun-17 13:28N 36°08' W 005°25'0 0.0
2018-Jun-17 12:58N 36°08' W 005°25'0 0.0
2018-Jun-17 12:28N 36°08' W 005°25'1 1.8
2018-Jun-17 12:00N 36°08' W 005°25'1 0.4
2018-Jun-17 08:51N 36°10' W 005°26'0 0.0
2018-Jun-17 08:15N 36°10' W 005°26'0 0.0
2018-Jun-17 08:00N 36°10' W 005°26'0 0.0
2018-Jun-17 07:26N 36°10' W 005°26'0 0.0
2018-Jun-17 06:59N 36°10' W 005°26'0 0.0
2018-Jun-17 06:08N 36°10' W 005°26'0 0.2
2018-Jun-17 05:56N 36°10' W 005°26'1 1.7
2018-Jun-17 05:25N 36°09' W 005°26'0 0.0
2018-Jun-16 19:29N 36°09' W 005°26'1 0.1
2018-Jun-16 06:18N 36°10' W 005°26'0 0.1
2018-Jun-16 06:00N 36°10' W 005°26'0 0.0
2018-Jun-16 05:24N 36°10' W 005°26'0 0.0
2018-Jun-16 05:00N 36°10' W 005°26'0 0.0
2018-Jun-16 04:29N 36°10' W 005°26'0 0.0
2018-Jun-16 03:59N 36°10' W 005°26'0 0.0
2018-Jun-16 03:29N 36°10' W 005°26'0 0.0
2018-Jun-16 02:59N 36°10' W 005°26'0 0.0
2018-Jun-16 02:16N 36°10' W 005°26'0 0.0
2018-Jun-16 01:58N 36°10' W 005°26'0 0.0
2018-Jun-16 01:28N 36°10' W 005°26'0 0.0
2018-Jun-16 00:58N 36°10' W 005°26'0 0.0
2018-Jun-16 00:28N 36°10' W 005°26'0 0.0
2018-Jun-15 23:51N 36°10' W 005°26'0 0.0
2018-Jun-15 23:27N 36°10' W 005°26'0 0.0
2018-Jun-15 22:57N 36°10' W 005°26'0 0.0
2018-Jun-15 22:27N 36°10' W 005°26'0 0.0
2018-Jun-15 21:57N 36°10' W 005°26'0 0.0
2018-Jun-15 21:26N 36°10' W 005°26'0 0.0
2018-Jun-15 20:59N 36°10' W 005°26'0 0.0
2018-Jun-15 20:26N 36°10' W 005°26'0 0.1
2018-Jun-15 19:50N 36°10' W 005°26'0 0.0
2018-Jun-15 19:26N 36°10' W 005°26'0 0.0
2018-Jun-15 18:55N 36°10' W 005°26'2 4.7
2018-Jun-15 18:30N 36°09' W 005°24'1 2.9
2018-Jun-15 18:00N 36°07' W 005°23'  
Track history (hours):
 
Tides and Currents Weather Stations Pressure Air Temp Water Temp Dewpoint Dewpoint Depression Visibility Wind Speed Wind Dir Waves Ship Positions

Max Loyalty

Last reported at 2018-Jun-25 17:30 UTC. Time now 2018-Jun-25 17:51 UTC.
Position N 29°01' W 014°60'.

Length 134 m; draft 8.5 m.

Type: Ship. MMSI: 249037000.

Date/timePositionNaut miles runAvg speedWind from/ knotsBaromVisibWave heightAir tempDewpointWater temp
2018-Jun-25 17:30N 29°01' W 014°60'714.3
2018-Jun-25 17:00N 28°58' W 015°07'714.5
2018-Jun-25 16:30N 28°54' W 015°15'714.4
2018-Jun-25 16:00N 28°51' W 015°21'714.4
2018-Jun-25 15:30N 28°48' W 015°29'714.3
2018-Jun-25 15:00N 28°45' W 015°36'714.2
2018-Jun-25 14:30N 28°41' W 015°43'714.6
2018-Jun-25 14:00N 28°38' W 015°51'714.5
2018-Jun-25 13:30N 28°35' W 015°58'714.4
2018-Jun-25 13:00N 28°31' W 016°05'714.2
2018-Jun-25 12:30N 28°28' W 016°13'1 2.1
2018-Jun-25 11:58N 28°29' W 016°13'0 0.0
2018-Jun-25 11:22N 28°29' W 016°13'0 0.0
2018-Jun-25 10:58N 28°29' W 016°13'0 0.0
2018-Jun-25 10:28N 28°29' W 016°13'0 0.0
2018-Jun-25 10:01N 28°29' W 016°13'0 0.0
2018-Jun-25 09:30N 28°29' W 016°13'0 0.0
2018-Jun-25 09:00N 28°29' W 016°13'0 0.0
2018-Jun-25 08:30N 28°29' W 016°13'0 0.0
2018-Jun-25 08:00N 28°29' W 016°13'0 0.0
2018-Jun-25 07:29N 28°29' W 016°13'0 0.0
2018-Jun-25 07:00N 28°29' W 016°13'1 2.4
2018-Jun-25 06:30N 28°28' W 016°13'510.6
2018-Jun-25 06:00N 28°26' W 016°08'714.2
2018-Jun-25 05:31N 28°24' W 015°60'714.5
2018-Jun-25 05:00N 28°22' W 015°52'714.5
2018-Jun-25 04:30N 28°20' W 015°44'714.4
2018-Jun-25 04:00N 28°18' W 015°36'714.4
2018-Jun-25 03:30N 28°16' W 015°28'713.7
2018-Jun-25 03:00N 28°13' W 015°22'611.7
2018-Jun-25 02:30N 28°07' W 015°24'2 3.1
2018-Jun-25 01:59N 28°09' W 015°25'0 0.0
2018-Jun-25 01:29N 28°09' W 015°25'0 0.0
2018-Jun-25 00:59N 28°09' W 015°25'0 0.0
2018-Jun-25 00:25N 28°09' W 015°25'0 0.0
2018-Jun-24 23:49N 28°09' W 015°25'0 0.0
2018-Jun-24 23:28N 28°09' W 015°25'0 0.0
2018-Jun-24 22:58N 28°09' W 015°25'0 0.0
2018-Jun-24 22:28N 28°09' W 015°25'0 0.0
2018-Jun-24 21:54N 28°09' W 015°25'0 0.0
2018-Jun-24 21:30N 28°09' W 015°25'0 0.0
2018-Jun-24 21:00N 28°09' W 015°25'0 0.0
2018-Jun-24 20:27N 28°09' W 015°25'0 0.0
2018-Jun-24 19:53N 28°09' W 015°25'0 0.0
2018-Jun-24 19:20N 28°09' W 015°25'0 0.0
2018-Jun-24 18:59N 28°09' W 015°25'0 0.0
2018-Jun-24 18:29N 28°09' W 015°25'0 0.0
2018-Jun-24 17:56N 28°09' W 015°25'0 0.0
2018-Jun-24 17:22N 28°09' W 015°25'0 0.0
2018-Jun-24 16:49N 28°09' W 015°25'0 0.0
2018-Jun-24 16:28N 28°09' W 015°25'0 0.0
2018-Jun-24 15:58N 28°09' W 015°25'0 0.0
2018-Jun-24 15:30N 28°09' W 015°25'1 2.2
2018-Jun-24 15:00N 28°07' W 015°24'4 8.7
2018-Jun-24 14:31N 28°09' W 015°20'815.3
2018-Jun-24 14:01N 28°15' W 015°14'815.1
2018-Jun-24 13:31N 28°20' W 015°08'714.7
2018-Jun-24 13:00N 28°26' W 015°02'714.6
2018-Jun-24 12:30N 28°31' W 014°57'714.6
2018-Jun-24 12:00N 28°36' W 014°51'814.6
2018-Jun-24 11:27N 28°42' W 014°45'614.7
2018-Jun-24 11:00N 28°47' W 014°39'1014.6
2018-Jun-24 10:20N 28°54' W 014°31'514.4
2018-Jun-24 09:59N 28°57' W 014°27'715.3
2018-Jun-24 09:30N 29°02' W 014°21'815.2
2018-Jun-24 08:58N 29°08' W 014°15'1215.4
2018-Jun-24 08:13N 29°16' W 014°05'315.5
2018-Jun-24 08:00N 29°19' W 014°03'  
2018-Jun-19 07:49N 37°28' W 001°04'516.1
2018-Jun-19 07:30N 37°32' W 001°00'3 0.4
2018-Jun-18 23:21N 37°36' W 000°58'0 0.0
2018-Jun-18 16:30N 37°36' W 000°59'3 4.9
2018-Jun-18 15:59N 37°33' W 000°60'1 1.6
2018-Jun-18 15:25N 37°33' W 001°01'0 0.5
2018-Jun-18 15:00N 37°33' W 001°01'21812.8
2018-Jun-17 22:04N 36°04' W 005°09'114.7
2018-Jun-17 21:59N 36°04' W 005°10'714.7
2018-Jun-17 21:30N 36°03' W 005°19'612.2
2018-Jun-17 21:00N 36°07' W 005°25'1 2.0
2018-Jun-17 20:28N 36°08' W 005°25'0 0.0
2018-Jun-17 19:55N 36°08' W 005°25'0 0.0
2018-Jun-17 19:25N 36°08' W 005°25'0 0.0
2018-Jun-17 19:00N 36°08' W 005°25'0 0.0
2018-Jun-17 17:42N 36°08' W 005°25'0 0.0
2018-Jun-17 17:18N 36°08' W 005°25'0 0.0
2018-Jun-17 16:59N 36°08' W 005°25'0 0.0
2018-Jun-17 16:29N 36°08' W 005°25'0 0.0
2018-Jun-17 15:11N 36°08' W 005°25'0 0.0
2018-Jun-17 14:59N 36°08' W 005°25'0 0.0
2018-Jun-17 14:28N 36°08' W 005°25'0 0.0
2018-Jun-17 13:58N 36°08' W 005°25'0 0.0
2018-Jun-17 13:28N 36°08' W 005°25'0 0.0
2018-Jun-17 12:58N 36°08' W 005°25'0 0.0
2018-Jun-17 12:28N 36°08' W 005°25'1 1.8
2018-Jun-17 12:00N 36°08' W 005°25'1 0.4
2018-Jun-17 08:51N 36°10' W 005°26'0 0.0
2018-Jun-17 08:15N 36°10' W 005°26'0 0.0
2018-Jun-17 08:00N 36°10' W 005°26'0 0.0
2018-Jun-17 07:26N 36°10' W 005°26'0 0.0
2018-Jun-17 06:59N 36°10' W 005°26'0 0.0
2018-Jun-17 06:08N 36°10' W 005°26'0 0.2
2018-Jun-17 05:56N 36°10' W 005°26'1 1.7
2018-Jun-17 05:25N 36°09' W 005°26'0 0.0
2018-Jun-16 19:29N 36°09' W 005°26'1 0.1
2018-Jun-16 06:18N 36°10' W 005°26'0 0.1
2018-Jun-16 06:00N 36°10' W 005°26'0 0.0
2018-Jun-16 05:24N 36°10' W 005°26'0 0.0
2018-Jun-16 05:00N 36°10' W 005°26'0 0.0
2018-Jun-16 04:29N 36°10' W 005°26'0 0.0
2018-Jun-16 03:59N 36°10' W 005°26'0 0.0
2018-Jun-16 03:29N 36°10' W 005°26'0 0.0
2018-Jun-16 02:59N 36°10' W 005°26'0 0.0
2018-Jun-16 02:16N 36°10' W 005°26'0 0.0
2018-Jun-16 01:58N 36°10' W 005°26'0 0.0
2018-Jun-16 01:28N 36°10' W 005°26'0 0.0
2018-Jun-16 00:58N 36°10' W 005°26'0 0.0
2018-Jun-16 00:28N 36°10' W 005°26'0 0.0
2018-Jun-15 23:51N 36°10' W 005°26'0 0.0
2018-Jun-15 23:27N 36°10' W 005°26'0 0.0
2018-Jun-15 22:57N 36°10' W 005°26'0 0.0
2018-Jun-15 22:27N 36°10' W 005°26'0 0.0
2018-Jun-15 21:57N 36°10' W 005°26'0 0.0
2018-Jun-15 21:26N 36°10' W 005°26'0 0.0
2018-Jun-15 20:59N 36°10' W 005°26'0 0.0
2018-Jun-15 20:26N 36°10' W 005°26'0 0.1
2018-Jun-15 19:50N 36°10' W 005°26'0 0.0
2018-Jun-15 19:26N 36°10' W 005°26'0 0.0
2018-Jun-15 18:55N 36°10' W 005°26'2 4.7
2018-Jun-15 18:30N 36°09' W 005°24'1 2.9
2018-Jun-15 18:00N 36°07' W 005°23'  

Dump ship's entire track history